Latest Weather Observations for Nullarbor

IDS60801

Issued at 12:01 pm CST Wednesday 29 July 2015 (issued every 30 minutes, with the page automatically refreshed every 10 minutes)

About weather observations | Map of weather stations | Latest weather observations for SA | Other Formats
Station Details ID: 018106 Name: NULLARBOR Lat: -31.45 Lon: 130.90 Height: 64.0 m
Data from the previous 72 hours. | See also: Recent months at Nullarbor
Date/Time
CST
Temp
°C
App
Temp
°C
Dew
Point
Rel
Hum
%
Delta-T
°C
Wind Press
QNH
hPa
Press
MSL
hPa
Rain
since 9 am
mm
Dir
 
Spd
km/h
Gust
km/h
Spd
kts
Gust
kts
29/12:00pm 17.3 8.7 0.0 31 7.4 N 35 44 19 24 1023.5 1023.5 0.0
29/11:30am 17.4 8.4 0.1 31 7.5 N 37 50 20 27 1023.9 1023.9 0.0
29/11:00am 15.4 6.3 -0.4 34 6.6 N 37 46 20 25 1024.2 1024.2 0.0
29/10:30am 14.6 5.2 -0.3 36 6.2 N 39 48 21 26 1024.6 1024.6 0.0
29/10:00am 13.9 5.8 -0.2 38 5.9 N 32 41 17 22 1025.3 1025.3 0.0
29/09:30am 13.0 6.1 0.1 41 5.3 N 26 33 14 18 1025.4 1025.4 0.0
29/09:00am 12.3 5.8 0.1 43 5.0 N 24 30 13 16 1025.8 1025.8 0.0
29/08:30am 11.8 5.2 -0.4 43 4.9 N 24 32 13 17 1025.8 1025.8 0.0
29/08:00am 11.8 4.8 -0.4 43 5.0 N 26 33 14 18 1025.8 1025.8 0.0
29/07:30am 11.9 4.5 -0.6 42 5.0 N 28 37 15 20 1025.4 1025.4 0.0
29/07:00am 11.8 4.0 -0.7 42 5.0 NNE 30 41 16 22 1024.5 1024.5 0.0
29/06:30am 11.5 4.5 -0.6 43 4.9 NNE 26 35 14 19 1024.6 1024.6 0.0
29/06:00am 11.2 4.6 -0.3 45 4.6 NNE 24 32 13 17 1025.0 1025.0 0.0
29/05:30am 10.9 3.9 -0.2 46 4.5 NNE 26 33 14 18 1024.8 1024.8 0.0
29/05:00am 10.9 3.6 -0.2 46 4.5 NNE 28 35 15 19 1025.0 1025.0 0.0
29/04:30am 10.8 3.5 0.0 47 4.4 NNE 28 37 15 20 1025.2 1025.2 0.0
29/04:00am 10.2 3.3 0.0 49 4.1 NNE 26 33 14 18 1025.1 1025.1 0.0
29/03:30am 10.2 3.7 0.0 49 4.1 NNE 24 28 13 15 1026.2 1026.2 0.0
29/03:00am 9.9 3.8 0.3 51 3.9 NNE 22 26 12 14 1026.7 1026.7 0.0
29/02:30am 9.7 4.5 0.1 51 3.8 NNE 17 22 9 12 1027.0 1027.0 0.0
29/02:00am 10.5 4.0 0.0 48 4.3 NNE 24 30 13 16 1026.4 1026.4 0.0
29/01:30am 10.8 4.3 0.0 47 4.4 NNE 24 32 13 17 1026.7 1026.7 0.0
29/01:00am 11.2 4.3 0.0 46 4.6 NE 26 33 14 18 1026.3 1026.3 0.0
29/12:30am 11.2 4.7 0.3 47 4.4 NE 24 32 13 17 1026.8 1026.8 0.0
29/12:00am 10.8 4.3 0.5 49 4.2 NE 24 30 13 16 1027.1 1027.1 0.0
 
Date/Time
CST
Temp
°C
App
Temp
°C
Dew
Point
Rel
Hum
%
Delta-T
°C
Wind Press
QNH
hPa
Press
MSL
hPa
Rain
since 9 am
mm
Dir
 
Spd
km/h
Gust
km/h
Spd
kts
Gust
kts
28/11:30pm 10.8 5.3 0.5 49 4.2 NE 19 24 10 13 1027.9 1027.9 0.0
28/11:00pm 11.1 6.0 0.5 48 4.4 NE 17 20 9 11 1028.2 1028.2 0.0
28/10:30pm 11.4 6.3 0.5 47 4.5 NNE 17 20 9 11 1028.2 1028.2 0.0
28/10:00pm 11.6 5.9 0.7 47 4.5 NE 20 28 11 15 1027.9 1027.9 0.0
28/09:30pm 10.8 5.4 1.1 51 4.0 NE 19 24 10 13 1028.0 1028.0 0.0
28/09:00pm 10.7 5.7 1.3 52 3.9 NE 17 20 9 11 1028.5 1028.5 0.0
28/08:30pm 11.0 5.4 1.5 52 4.0 NE 20 24 11 13 1028.2 1028.2 0.0
28/08:00pm 11.2 5.9 1.7 52 4.0 NE 19 20 10 11 1028.6 1028.6 0.0
28/07:30pm 11.8 6.9 2.3 52 4.1 ENE 17 19 9 10 1028.6 1028.6 0.0
28/07:00pm 12.4 7.6 2.6 51 4.3 ENE 17 19 9 10 1028.8 1028.8 0.0
28/06:30pm 12.7 9.0 2.3 49 4.5 NE 11 15 6 8 1029.2 1029.3 0.0
28/06:00pm 14.2 10.8 2.1 44 5.3 NE 9 11 5 6 1029.3 1029.4 0.0
28/05:30pm 15.9 11.4 2.0 39 6.1 ENE 15 17 8 9 1029.0 1029.1 0.0
28/05:00pm 16.4 10.9 0.9 35 6.8 NE 19 26 10 14 1029.4 1029.5 0.0
28/04:30pm 16.9 11.3 1.0 34 6.9 NE 20 28 11 15 1029.6 1029.7 0.0
28/04:00pm 17.2 10.8 1.2 34 7.1 NE 24 33 13 18 1029.8 1029.9 0.0
28/03:30pm 17.2 11.6 1.2 34 7.0 NE 20 30 11 16 1030.1 1030.2 0.0
28/03:00pm 17.3 11.8 2.1 36 6.8 NE 20 28 11 15 1030.8 1030.9 0.0
28/02:30pm 16.4 11.2 2.4 39 6.3 NNE 19 30 10 16 1031.2 1031.3 0.0
28/02:00pm 16.1 10.7 2.5 40 6.1 NNE 20 30 11 16 1031.6 1031.7 0.0
28/01:30pm 16.3 10.2 2.7 40 6.1 NNE 24 35 13 19 1032.0 1032.1 0.0
28/01:00pm 16.5 11.0 3.9 43 5.9 NNE 22 32 12 17 1032.8 1032.9 0.0
28/12:30pm 15.6 9.7 3.7 45 5.4 NNE 24 32 13 17 1033.8 1033.9 0.0
28/12:00pm 15.3 8.6 3.8 46 5.2 NNE 28 33 15 18 1034.4 1034.5 0.0
28/11:30am 14.4 8.2 4.1 50 4.7 NNE 26 33 14 18 1035.2 1035.3 0.0
28/11:00am 13.6 8.1 4.2 53 4.3 NNE 22 28 12 15 1035.6 1035.7 0.0
28/10:30am 12.4 7.5 5.1 61 3.3 NNE 20 30 11 16 1035.9 1036.0 0.0
28/10:00am 10.4 5.1 5.0 69 2.5 NNE 22 30 12 16 1035.7 1035.8 0.0
28/09:30am 7.9 2.7 5.5 85 1.1 NE 22 30 12 16 1035.4 1035.5 0.0
28/09:00am 5.6 1.0 5.5 99 0.0 NE 19 24 10 13 1035.1 1035.2 0.0
28/08:30am 4.2 -0.7 4.1 99 0.0 NE 19 22 10 12 1035.2 1035.3 0.0
28/08:00am 3.0 -2.1 2.9 99 0.0 NE 19 22 10 12 1034.9 1035.0 0.0
28/07:30am 2.4 -2.5 2.3 99 0.0 NE 17 20 9 11 1034.6 1034.7 0.0
28/07:00am 2.2 -2.7 2.1 99 0.0 NE 17 20 9 11 1034.7 1034.8 0.0
28/06:30am 2.5 -2.7 2.4 99 0.0 ENE 19 20 10 11 1034.6 1034.7 0.0
28/06:00am 2.3 -2.6 2.2 99 0.0 ENE 17 19 9 10 1034.7 1034.8 0.0
28/05:30am 3.0 -1.7 2.9 99 0.0 ENE 17 20 9 11 1034.7 1034.8 0.0
28/05:00am 4.0 -0.9 3.9 99 0.0 ENE 19 20 10 11 1034.8 1034.9 0.0
28/04:47am 3.9 -0.7 3.8 99 0.0 ENE 17 20 9 11 1034.9 1035.0 0.0
28/04:30am 3.7 -0.9 3.6 99 0.0 ENE 17 20 9 11 1035.0 1035.1 0.0
28/04:13am 3.6 -1.0 3.5 99 0.0 ENE 17 19 9 10 1035.3 1035.4 0.0
28/04:00am 3.4 -1.3 3.3 99 0.0 ENE 17 19 9 10 1035.3 1035.4 0.0
28/03:30am 3.3 -1.4 3.2 99 0.0 ENE 17 19 9 10 1035.6 1035.7 0.0
28/03:00am 0.8 -3.5 0.7 99 0.0 ENE 13 17 7 9 1036.0 1036.1 0.0
28/02:30am 2.8 -0.8 2.7 99 0.0 E 11 13 6 7 1036.2 1036.3 0.0
28/02:00am 2.8 -1.2 2.7 99 0.0 E 13 15 7 8 1035.2 1035.3 0.0
28/01:30am 3.7 -0.2 3.6 99 0.0 E 13 15 7 8 1034.8 1034.9 0.0
28/01:00am 4.2 0.1 4.1 99 0.0 E 15 17 8 9 1034.5 1034.6 0.0
28/12:30am 5.2 0.9 5.1 99 0.0 E 17 19 9 10 1034.5 1034.6 0.0
28/12:00am 4.3 0.2 4.2 99 0.0 E 15 17 8 9 1035.3 1035.4 0.0
 
Date/Time
CST
Temp
°C
App
Temp
°C
Dew
Point
Rel
Hum
%
Delta-T
°C
Wind Press
QNH
hPa
Press
MSL
hPa
Rain
since 9 am
mm
Dir
 
Spd
km/h
Gust
km/h
Spd
kts
Gust
kts
27/11:30pm 5.2 1.6 5.1 99 0.0 ENE 13 17 7 9 1035.6 1035.7 0.0
27/11:00pm 6.4 2.3 6.3 99 0.0 ENE 17 19 9 10 1035.7 1035.8 0.0
27/10:56pm 6.4 2.3 6.3 99 0.0 ENE 17 19 9 10 1035.8 1035.9 0.0
27/10:30pm 6.2 2.5 6.1 99 0.0 E 15 17 8 9 1036.0 1036.1 0.0
27/10:24pm 6.2 2.5 6.1 99 0.0 E 15 17 8 9 1036.1 1036.2 0.0
27/10:00pm 6.2 2.4 5.9 98 0.1 ESE 15 17 8 9 1036.1 1036.2 0.0
27/09:30pm 6.4 2.6 5.8 96 0.3 ESE 15 17 8 9 1036.3 1036.4 0.0
27/09:00pm 7.3 3.7 6.9 97 0.2 ESE 15 17 8 9 1036.1 1036.2 0.0
27/08:30pm 7.2 3.2 6.6 96 0.3 SE 17 19 9 10 1036.2 1036.3 0.0
27/08:00pm 7.1 3.4 6.2 94 0.4 SSE 15 17 8 9 1036.1 1036.2 0.0
27/07:30pm 7.7 3.6 6.3 91 0.6 SSE 17 17 9 9 1035.7 1035.8 0.0
27/07:00pm 8.2 5.2 6.2 87 0.9 SSE 11 13 6 7 1035.6 1035.7 0.0
27/06:30pm 9.9 6.8 7.2 83 1.3 SE 13 15 7 8 1035.3 1035.4 0.0
27/06:00pm 11.5 7.7 7.4 76 2.0 SSE 17 20 9 11 1035.2 1035.3 0.0
27/05:30pm 12.5 8.3 7.4 71 2.5 SSE 19 22 10 12 1035.3 1035.4 0.0
27/05:00pm 13.1 9.4 8.0 71 2.5 SSE 17 20 9 11 1035.2 1035.3 0.0
27/04:30pm 12.7 9.0 8.0 73 2.3 S 17 20 9 11 1035.0 1035.1 0.0
27/04:00pm 13.5 9.9 8.4 71 2.6 SSE 17 20 9 11 1035.0 1035.1 0.0
27/03:30pm 13.5 9.5 8.1 70 2.7 S 19 22 10 12 1035.1 1035.2 0.0
27/03:00pm 13.7 9.4 7.7 67 2.9 SSW 20 28 11 15 1035.2 1035.3 0.0
27/02:30pm 14.0 11.9 6.8 62 3.5 SSE 7 13 4 7 1035.2 1035.3 0.0
27/02:00pm 13.8 11.2 7.6 66 3.1 SSE 11 19 6 10 1035.4 1035.5 0.0
27/01:30pm 13.9 12.0 6.5 61 3.5 NNW 6 13 3 7 1035.9 1036.0 0.0
27/01:00pm 14.3 12.6 7.4 63 3.4 W 6 9 3 5 1036.4 1036.5 0.0
27/12:30pm 14.3 12.1 6.2 58 3.9 N 7 11 4 6 1036.9 1037.0 0.0
27/12:00pm 13.2 10.8 7.0 66 3.0 WNW 9 15 5 8 1037.0 1037.1 0.0
27/11:30am 13.4 11.0 7.0 65 3.1 NNW 9 13 5 7 1037.2 1037.3 0.0
27/11:00am 12.9 10.9 8.6 75 2.2 NW 9 11 5 6 1037.2 1037.3 0.0
27/10:30am 11.0 10.9 10.8 99 0.1 NW 2 7 1 4 1037.5 1037.6 0.0
27/10:00am 9.9 9.9 9.9 100 0.0 CALM 0 0 0 0 1037.6 1037.7 0.0
27/09:30am 8.8 8.5 8.8 100 0.0 CALM 0 6 0 3 1037.3 1037.4 0.0
27/09:00am 6.8 4.7 6.8 100 0.0 WNW 7 9 4 5 1036.8 1036.9 0.6
27/08:30am 5.2 3.3 5.1 99 0.0 NW 4 7 2 4 1036.7 1036.8 0.4
27/08:00am 2.3 -0.5 2.2 99 0.0 N 6 7 3 4 1036.4 1036.5 0.4
27/07:30am 2.2 -1.2 2.1 99 0.0 NNW 9 11 5 6 1036.0 1036.1 0.4
27/07:00am 1.8 -2.0 1.7 99 0.0 NNW 11 13 6 7 1035.6 1035.7 0.4
27/06:30am 2.9 -0.7 2.8 99 0.0 WNW 11 13 6 7 1035.3 1035.4 0.4
27/06:00am 3.4 -0.1 3.3 99 0.0 NW 11 13 6 7 1035.0 1035.1 0.4
27/05:30am 4.0 1.3 3.9 99 0.0 NNW 7 11 4 6 1034.8 1034.9 0.4
27/05:00am 5.7 3.0 5.6 99 0.0 NW 9 11 5 6 1034.8 1034.9 0.4
27/04:30am 5.5 2.8 5.4 99 0.0 NW 9 11 5 6 1034.7 1034.8 0.4
27/04:00am 5.3 3.1 5.2 99 0.0 NNW 6 9 3 5 1034.6 1034.7 0.4
27/03:30am 5.7 2.6 5.6 99 0.0 NNW 11 11 6 6 1034.7 1034.8 0.4
27/03:00am 4.8 1.9 4.7 99 0.0 WNW 9 11 5 6 1034.6 1034.7 0.4
27/02:30am 4.2 0.8 4.1 99 0.0 NW 11 13 6 7 1034.5 1034.6 0.4
27/02:04am 4.2 0.4 4.1 99 0.0 WNW 13 15 7 8 1034.7 1034.8 0.4
27/02:00am 4.2 0.4 4.1 99 0.0 WNW 13 15 7 8 1034.8 1034.9 0.4
27/01:30am 4.2 0.8 4.1 99 0.0 NW 11 13 6 7 1034.6 1034.7 0.4
27/01:18am 4.6 1.3 4.5 99 0.0 WNW 11 13 6 7 1034.7 1034.8 0.4
27/01:00am 5.8 3.5 5.7 99 0.0 WNW 7 9 4 5 1034.6 1034.7 0.4
27/12:30am 4.7 1.8 4.6 99 0.0 NW 9 11 5 6 1034.4 1034.5 0.4
27/12:00am 6.0 2.9 5.7 98 0.1 W 11 13 6 7 1034.3 1034.4 0.4
 
Date/Time
CST
Temp
°C
App
Temp
°C
Dew
Point
Rel
Hum
%
Delta-T
°C
Wind Press
QNH
hPa
Press
MSL
hPa
Rain
since 9 am
mm
Dir
 
Spd
km/h
Gust
km/h
Spd
kts
Gust
kts
26/11:30pm 6.8 3.9 6.4 97 0.2 WNW 11 13 6 7 1034.3 1034.4 0.4
26/11:00pm 7.8 5.1 7.2 96 0.3 WNW 11 13 6 7 1034.1 1034.2 0.4
26/10:39pm 8.9 6.8 8.3 96 0.3 WNW 9 11 5 6 1034.1 1034.2 0.4
26/10:30pm 9.2 7.2 8.6 96 0.3 W 9 13 5 7 1034.1 1034.2 0.4
26/10:18pm 9.3 7.3 8.5 95 0.4 WSW 9 15 5 8 1034.0 1034.1 0.2
26/10:17pm 9.2 7.1 8.4 95 0.4 WSW 9 15 5 8 1034.0 1034.1 0.2
26/10:00pm 9.3 6.0 8.2 93 0.5 SW 15 17 8 9 1034.0 1034.1 0.0
26/09:56pm 9.1 5.7 7.7 91 0.7 SW 15 20 8 11 1034.0 1034.1 0.0
26/09:30pm 7.6 4.9 5.4 86 1.0 WSW 9 11 5 6 1033.6 1033.7 0.0
26/09:00pm 8.2 5.7 6.5 89 0.8 WSW 9 15 5 8 1033.4 1033.5 0.0
26/08:30pm 7.7 4.9 5.2 84 1.1 WSW 9 11 5 6 1033.2 1033.3 0.0
26/08:00pm 8.6 5.6 6.2 85 1.1 SSW 11 13 6 7 1032.8 1032.9 0.0
26/07:30pm 8.4 5.1 6.2 86 1.0 SSW 13 19 7 10 1032.6 1032.7 0.0
26/07:00pm 8.7 6.2 6.5 86 1.0 S 9 13 5 7 1032.1 1032.2 0.0
26/06:30pm 9.4 6.4 6.1 80 1.5 SSE 11 15 6 8 1031.6 1031.7 0.0
26/06:00pm 11.0 7.7 6.4 73 2.1 S 13 17 7 9 1031.4 1031.5 0.0
26/05:30pm 12.4 8.5 6.9 69 2.6 S 17 22 9 12 1031.2 1031.3 0.0
26/05:00pm 12.5 7.3 7.2 70 2.6 S 24 32 13 17 1030.9 1031.0 0.0
26/04:30pm 13.6 9.0 6.5 62 3.4 SSW 20 28 11 15 1030.5 1030.6 0.0
26/04:00pm 13.4 8.4 6.3 62 3.4 SSW 22 30 12 16 1030.2 1030.3 0.0
26/03:30pm 14.4 9.5 7.0 61 3.6 SSW 22 30 12 16 1030.0 1030.1 0.0
26/03:00pm 13.9 9.2 7.7 66 3.0 SSW 22 30 12 16 1029.9 1030.0 0.0
26/02:30pm 13.5 10.1 7.7 68 2.8 SSW 15 26 8 14 1029.9 1030.0 0.0
26/02:00pm 13.1 8.2 6.9 66 3.0 SW 22 30 12 16 1030.0 1030.1 0.0
26/01:30pm 14.2 9.1 5.8 57 4.0 SSW 22 32 12 17 1029.8 1029.9 0.0
26/01:00pm 14.6 9.5 5.9 56 4.2 SSW 22 32 12 17 1029.9 1030.0 0.0
26/12:30pm 14.1 8.5 5.5 56 4.0 SSW 24 32 13 17 1030.2 1030.3 0.0

Other Formats:

Comma delimited format used in spreadsheet applications
http://www.bom.gov.au/fwo/IDS60801/IDS60801.94651.axf

JavaScript Object Notation format (JSON) in row-major order
http://www.bom.gov.au/fwo/IDS60801/IDS60801.94651.json